sensor_id;sensor_type;location;lat;lon;timestamp;P1;durP1;ratioP1;P2;durP2;ratioP2
5876;SDS011;2964;42.144;24.730;2023-03-31T00:02:12;5.97;;;5.53;;
5876;SDS011;2964;42.144;24.730;2023-03-31T00:04:39;6.00;;;5.50;;
5876;SDS011;2964;42.144;24.730;2023-03-31T00:07:10;5.90;;;5.60;;
5876;SDS011;2964;42.144;24.730;2023-03-31T00:09:39;6.63;;;5.97;;
5876;SDS011;2964;42.144;24.730;2023-03-31T00:12:10;5.50;;;5.00;;
5876;SDS011;2964;42.144;24.730;2023-03-31T00:14:37;5.50;;;5.10;;
5876;SDS011;2964;42.144;24.730;2023-03-31T00:17:03;5.97;;;5.53;;
5876;SDS011;2964;42.144;24.730;2023-03-31T00:19:30;5.83;;;5.40;;
5876;SDS011;2964;42.144;24.730;2023-03-31T00:21:57;6.30;;;5.33;;
5876;SDS011;2964;42.144;24.730;2023-03-31T00:24:26;5.67;;;5.30;;
5876;SDS011;2964;42.144;24.730;2023-03-31T00:26:57;5.57;;;5.17;;
5876;SDS011;2964;42.144;24.730;2023-03-31T00:29:25;5.80;;;5.50;;
5876;SDS011;2964;42.144;24.730;2023-03-31T00:31:52;6.67;;;5.80;;
5876;SDS011;2964;42.144;24.730;2023-03-31T00:34:19;5.87;;;5.47;;
5876;SDS011;2964;42.144;24.730;2023-03-31T00:36:46;5.80;;;5.33;;
5876;SDS011;2964;42.144;24.730;2023-03-31T00:39:14;10.40;;;8.37;;
5876;SDS011;2964;42.144;24.730;2023-03-31T00:41:43;6.17;;;5.70;;
5876;SDS011;2964;42.144;24.730;2023-03-31T00:44:13;5.83;;;5.53;;
5876;SDS011;2964;42.144;24.730;2023-03-31T00:46:47;7.27;;;6.67;;
5876;SDS011;2964;42.144;24.730;2023-03-31T00:49:18;7.07;;;6.57;;
5876;SDS011;2964;42.144;24.730;2023-03-31T00:51:50;6.27;;;5.70;;
5876;SDS011;2964;42.144;24.730;2023-03-31T00:54:19;6.33;;;5.93;;
5876;SDS011;2964;42.144;24.730;2023-03-31T00:56:50;6.90;;;6.30;;
5876;SDS011;2964;42.144;24.730;2023-03-31T00:59:24;6.37;;;5.90;;
5876;SDS011;2964;42.144;24.730;2023-03-31T01:01:55;8.30;;;6.07;;
5876;SDS011;2964;42.144;24.730;2023-03-31T01:04:26;5.93;;;5.43;;
5876;SDS011;2964;42.144;24.730;2023-03-31T01:06:57;6.40;;;6.00;;
5876;SDS011;2964;42.144;24.730;2023-03-31T01:09:28;6.03;;;5.63;;
5876;SDS011;2964;42.144;24.730;2023-03-31T01:11:59;6.30;;;5.90;;
5876;SDS011;2964;42.144;24.730;2023-03-31T01:14:28;6.10;;;5.70;;
5876;SDS011;2964;42.144;24.730;2023-03-31T01:16:55;7.37;;;6.20;;
5876;SDS011;2964;42.144;24.730;2023-03-31T01:19:24;5.63;;;5.30;;
5876;SDS011;2964;42.144;24.730;2023-03-31T01:28:17;6.07;;;5.63;;
5876;SDS011;2964;42.144;24.730;2023-03-31T01:31:04;6.97;;;6.07;;
5876;SDS011;2964;42.144;24.730;2023-03-31T01:34:26;6.97;;;6.27;;
5876;SDS011;2964;42.144;24.730;2023-03-31T01:37:12;6.13;;;5.60;;
5876;SDS011;2964;42.144;24.730;2023-03-31T01:40:02;7.27;;;6.00;;
5876;SDS011;2964;42.144;24.730;2023-03-31T01:42:40;7.33;;;6.00;;
5876;SDS011;2964;42.144;24.730;2023-03-31T01:45:13;6.90;;;6.40;;
5876;SDS011;2964;42.144;24.730;2023-03-31T01:47:48;6.13;;;5.67;;
5876;SDS011;2964;42.144;24.730;2023-03-31T01:50:22;7.73;;;6.57;;
5876;SDS011;2964;42.144;24.730;2023-03-31T01:52:55;43.10;;;9.07;;
5876;SDS011;2964;42.144;24.730;2023-03-31T01:55:30;8.50;;;6.10;;
5876;SDS011;2964;42.144;24.730;2023-03-31T01:58:04;7.43;;;6.73;;
5876;SDS011;2964;42.144;24.730;2023-03-31T02:00:35;9.10;;;6.10;;
5876;SDS011;2964;42.144;24.730;2023-03-31T02:03:08;9.90;;;6.10;;
5876;SDS011;2964;42.144;24.730;2023-03-31T02:05:42;6.63;;;6.17;;
5876;SDS011;2964;42.144;24.730;2023-03-31T02:08:13;7.10;;;6.13;;
5876;SDS011;2964;42.144;24.730;2023-03-31T02:10:48;7.20;;;6.67;;
5876;SDS011;2964;42.144;24.730;2023-03-31T02:13:16;7.50;;;6.43;;
5876;SDS011;2964;42.144;24.730;2023-03-31T02:15:46;8.27;;;6.33;;
5876;SDS011;2964;42.144;24.730;2023-03-31T02:18:17;6.60;;;6.10;;
5876;SDS011;2964;42.144;24.730;2023-03-31T02:20:50;7.13;;;6.43;;
5876;SDS011;2964;42.144;24.730;2023-03-31T02:23:21;8.03;;;6.87;;
5876;SDS011;2964;42.144;24.730;2023-03-31T02:25:56;6.73;;;6.23;;
5876;SDS011;2964;42.144;24.730;2023-03-31T02:28:27;6.80;;;6.30;;
5876;SDS011;2964;42.144;24.730;2023-03-31T02:30:58;7.33;;;6.50;;
5876;SDS011;2964;42.144;24.730;2023-03-31T02:33:33;11.37;;;7.50;;
5876;SDS011;2964;42.144;24.730;2023-03-31T02:36:00;12.33;;;7.33;;
5876;SDS011;2964;42.144;24.730;2023-03-31T02:38:28;7.40;;;6.87;;
5876;SDS011;2964;42.144;24.730;2023-03-31T02:40:59;8.53;;;7.73;;
5876;SDS011;2964;42.144;24.730;2023-03-31T02:43:26;8.97;;;7.80;;
5876;SDS011;2964;42.144;24.730;2023-03-31T02:45:53;10.40;;;7.57;;
5876;SDS011;2964;42.144;24.730;2023-03-31T02:48:20;8.37;;;7.67;;
5876;SDS011;2964;42.144;24.730;2023-03-31T02:51:00;8.20;;;7.40;;
5876;SDS011;2964;42.144;24.730;2023-03-31T02:53:59;10.33;;;7.57;;
5876;SDS011;2964;42.144;24.730;2023-03-31T02:56:48;9.57;;;8.17;;
5876;SDS011;2964;42.144;24.730;2023-03-31T02:59:32;14.70;;;7.80;;
5876;SDS011;2964;42.144;24.730;2023-03-31T03:02:11;9.10;;;7.83;;
5876;SDS011;2964;42.144;24.730;2023-03-31T03:04:48;9.40;;;8.53;;
5876;SDS011;2964;42.144;24.730;2023-03-31T03:07:33;12.50;;;8.10;;
5876;SDS011;2964;42.144;24.730;2023-03-31T03:10:07;13.33;;;8.53;;
5876;SDS011;2964;42.144;24.730;2023-03-31T03:12:39;10.83;;;8.13;;
5876;SDS011;2964;42.144;24.730;2023-03-31T03:15:12;19.80;;;8.60;;
5876;SDS011;2964;42.144;24.730;2023-03-31T03:17:43;7.90;;;7.23;;
5876;SDS011;2964;42.144;24.730;2023-03-31T03:20:12;7.40;;;6.77;;
5876;SDS011;2964;42.144;24.730;2023-03-31T03:22:41;9.03;;;7.37;;
5876;SDS011;2964;42.144;24.730;2023-03-31T03:25:08;7.63;;;6.50;;
5876;SDS011;2964;42.144;24.730;2023-03-31T03:27:37;8.50;;;7.67;;
5876;SDS011;2964;42.144;24.730;2023-03-31T03:30:06;8.63;;;7.63;;
5876;SDS011;2964;42.144;24.730;2023-03-31T03:32:34;9.37;;;7.40;;
5876;SDS011;2964;42.144;24.730;2023-03-31T03:35:02;7.57;;;6.97;;
5876;SDS011;2964;42.144;24.730;2023-03-31T03:37:30;15.27;;;7.47;;
5876;SDS011;2964;42.144;24.730;2023-03-31T03:39:57;8.40;;;7.50;;
5876;SDS011;2964;42.144;24.730;2023-03-31T03:42:24;10.67;;;8.03;;
5876;SDS011;2964;42.144;24.730;2023-03-31T03:44:52;8.43;;;7.53;;
5876;SDS011;2964;42.144;24.730;2023-03-31T03:47:18;9.63;;;8.37;;
5876;SDS011;2964;42.144;24.730;2023-03-31T03:49:45;10.50;;;7.23;;
5876;SDS011;2964;42.144;24.730;2023-03-31T03:52:13;8.07;;;7.40;;
5876;SDS011;2964;42.144;24.730;2023-03-31T03:54:39;8.23;;;7.43;;
5876;SDS011;2964;42.144;24.730;2023-03-31T03:57:07;11.40;;;7.13;;
5876;SDS011;2964;42.144;24.730;2023-03-31T03:59:34;7.77;;;7.03;;
5876;SDS011;2964;42.144;24.730;2023-03-31T04:02:02;8.10;;;6.97;;
5876;SDS011;2964;42.144;24.730;2023-03-31T04:04:28;10.77;;;7.73;;
5876;SDS011;2964;42.144;24.730;2023-03-31T04:06:55;8.33;;;7.37;;
5876;SDS011;2964;42.144;24.730;2023-03-31T04:09:22;8.47;;;7.73;;
5876;SDS011;2964;42.144;24.730;2023-03-31T04:11:48;8.87;;;8.07;;
5876;SDS011;2964;42.144;24.730;2023-03-31T04:14:15;7.77;;;7.17;;
5876;SDS011;2964;42.144;24.730;2023-03-31T04:16:42;7.90;;;7.33;;
5876;SDS011;2964;42.144;24.730;2023-03-31T04:19:12;8.17;;;7.37;;
5876;SDS011;2964;42.144;24.730;2023-03-31T04:21:41;9.67;;;7.17;;
5876;SDS011;2964;42.144;24.730;2023-03-31T04:24:09;8.23;;;7.60;;
5876;SDS011;2964;42.144;24.730;2023-03-31T04:26:40;15.43;;;8.63;;
5876;SDS011;2964;42.144;24.730;2023-03-31T04:29:07;13.67;;;8.27;;
5876;SDS011;2964;42.144;24.730;2023-03-31T04:31:36;9.87;;;9.07;;
5876;SDS011;2964;42.144;24.730;2023-03-31T04:34:06;13.20;;;8.83;;
5876;SDS011;2964;42.144;24.730;2023-03-31T04:36:38;9.87;;;8.90;;
5876;SDS011;2964;42.144;24.730;2023-03-31T04:39:06;12.80;;;10.40;;
5876;SDS011;2964;42.144;24.730;2023-03-31T04:41:34;13.30;;;9.63;;
5876;SDS011;2964;42.144;24.730;2023-03-31T04:44:01;11.87;;;8.93;;
5876;SDS011;2964;42.144;24.730;2023-03-31T04:46:28;9.47;;;8.67;;
5876;SDS011;2964;42.144;24.730;2023-03-31T04:48:55;18.80;;;10.00;;
5876;SDS011;2964;42.144;24.730;2023-03-31T04:51:23;9.37;;;8.60;;
5876;SDS011;2964;42.144;24.730;2023-03-31T04:53:51;11.83;;;8.47;;
5876;SDS011;2964;42.144;24.730;2023-03-31T04:56:18;16.50;;;9.87;;
5876;SDS011;2964;42.144;24.730;2023-03-31T04:58:46;19.53;;;10.43;;
5876;SDS011;2964;42.144;24.730;2023-03-31T05:01:13;9.47;;;8.43;;
5876;SDS011;2964;42.144;24.730;2023-03-31T05:03:42;10.60;;;9.27;;
5876;SDS011;2964;42.144;24.730;2023-03-31T05:06:09;10.63;;;8.43;;
5876;SDS011;2964;42.144;24.730;2023-03-31T05:08:36;12.67;;;10.13;;
5876;SDS011;2964;42.144;24.730;2023-03-31T05:11:04;8.77;;;8.07;;
5876;SDS011;2964;42.144;24.730;2023-03-31T05:13:31;12.00;;;8.97;;
5876;SDS011;2964;42.144;24.730;2023-03-31T05:16:04;10.83;;;9.60;;
5876;SDS011;2964;42.144;24.730;2023-03-31T05:18:31;11.97;;;9.27;;
5876;SDS011;2964;42.144;24.730;2023-03-31T05:21:06;13.67;;;7.93;;
5876;SDS011;2964;42.144;24.730;2023-03-31T05:23:34;9.63;;;8.57;;
5876;SDS011;2964;42.144;24.730;2023-03-31T05:26:01;9.87;;;8.90;;
5876;SDS011;2964;42.144;24.730;2023-03-31T05:28:29;11.10;;;9.20;;
5876;SDS011;2964;42.144;24.730;2023-03-31T05:30:57;11.70;;;9.40;;
5876;SDS011;2964;42.144;24.730;2023-03-31T05:33:24;10.03;;;8.33;;
5876;SDS011;2964;42.144;24.730;2023-03-31T05:35:51;8.80;;;8.20;;
5876;SDS011;2964;42.144;24.730;2023-03-31T05:38:17;9.23;;;8.40;;
5876;SDS011;2964;42.144;24.730;2023-03-31T05:40:45;15.63;;;9.10;;
5876;SDS011;2964;42.144;24.730;2023-03-31T05:43:12;8.63;;;7.93;;
5876;SDS011;2964;42.144;24.730;2023-03-31T05:45:40;9.80;;;9.00;;
5876;SDS011;2964;42.144;24.730;2023-03-31T05:48:07;12.10;;;9.03;;
5876;SDS011;2964;42.144;24.730;2023-03-31T05:50:33;10.13;;;8.90;;
5876;SDS011;2964;42.144;24.730;2023-03-31T05:53:00;10.23;;;8.83;;
5876;SDS011;2964;42.144;24.730;2023-03-31T05:55:27;14.43;;;9.73;;
5876;SDS011;2964;42.144;24.730;2023-03-31T05:57:53;13.77;;;9.33;;
5876;SDS011;2964;42.144;24.730;2023-03-31T06:00:20;9.43;;;8.63;;
5876;SDS011;2964;42.144;24.730;2023-03-31T06:02:49;11.07;;;9.83;;
5876;SDS011;2964;42.144;24.730;2023-03-31T06:05:15;13.17;;;9.00;;
5876;SDS011;2964;42.144;24.730;2023-03-31T06:07:42;11.73;;;10.00;;
5876;SDS011;2964;42.144;24.730;2023-03-31T06:10:09;16.13;;;10.70;;
5876;SDS011;2964;42.144;24.730;2023-03-31T06:12:36;19.07;;;9.90;;
5876;SDS011;2964;42.144;24.730;2023-03-31T06:15:02;11.00;;;9.77;;
5876;SDS011;2964;42.144;24.730;2023-03-31T06:17:29;19.77;;;9.50;;
5876;SDS011;2964;42.144;24.730;2023-03-31T06:19:57;12.77;;;8.87;;
5876;SDS011;2964;42.144;24.730;2023-03-31T06:22:24;15.30;;;9.10;;
5876;SDS011;2964;42.144;24.730;2023-03-31T06:24:51;17.70;;;10.20;;
5876;SDS011;2964;42.144;24.730;2023-03-31T06:27:17;21.83;;;8.93;;
5876;SDS011;2964;42.144;24.730;2023-03-31T06:29:44;17.57;;;9.20;;
5876;SDS011;2964;42.144;24.730;2023-03-31T06:32:11;20.50;;;10.17;;
5876;SDS011;2964;42.144;24.730;2023-03-31T06:34:37;12.60;;;9.57;;
5876;SDS011;2964;42.144;24.730;2023-03-31T06:37:05;20.73;;;10.10;;
5876;SDS011;2964;42.144;24.730;2023-03-31T06:39:32;23.17;;;10.03;;
5876;SDS011;2964;42.144;24.730;2023-03-31T06:41:59;12.27;;;10.60;;
5876;SDS011;2964;42.144;24.730;2023-03-31T06:44:25;13.33;;;9.57;;
5876;SDS011;2964;42.144;24.730;2023-03-31T06:46:52;18.20;;;9.50;;
5876;SDS011;2964;42.144;24.730;2023-03-31T06:49:19;23.07;;;10.20;;
5876;SDS011;2964;42.144;24.730;2023-03-31T06:51:45;25.17;;;11.87;;
5876;SDS011;2964;42.144;24.730;2023-03-31T06:54:13;20.87;;;13.60;;
5876;SDS011;2964;42.144;24.730;2023-03-31T06:56:40;31.77;;;14.60;;
5876;SDS011;2964;42.144;24.730;2023-03-31T06:59:07;31.70;;;15.27;;
5876;SDS011;2964;42.144;24.730;2023-03-31T07:01:33;38.70;;;17.20;;
5876;SDS011;2964;42.144;24.730;2023-03-31T07:04:01;29.77;;;16.80;;
5876;SDS011;2964;42.144;24.730;2023-03-31T07:06:28;53.27;;;21.50;;
5876;SDS011;2964;42.144;24.730;2023-03-31T07:08:55;27.73;;;16.60;;
5876;SDS011;2964;42.144;24.730;2023-03-31T07:11:23;35.80;;;15.63;;
5876;SDS011;2964;42.144;24.730;2023-03-31T07:13:50;32.73;;;14.83;;
5876;SDS011;2964;42.144;24.730;2023-03-31T07:16:17;25.87;;;14.40;;
5876;SDS011;2964;42.144;24.730;2023-03-31T07:18:43;28.53;;;13.70;;
5876;SDS011;2964;42.144;24.730;2023-03-31T07:21:10;28.00;;;14.07;;
5876;SDS011;2964;42.144;24.730;2023-03-31T07:23:37;27.70;;;13.30;;
5876;SDS011;2964;42.144;24.730;2023-03-31T07:26:04;22.27;;;12.87;;
5876;SDS011;2964;42.144;24.730;2023-03-31T07:28:32;16.47;;;12.07;;
5876;SDS011;2964;42.144;24.730;2023-03-31T07:30:58;21.60;;;13.07;;
5876;SDS011;2964;42.144;24.730;2023-03-31T07:33:25;24.43;;;12.47;;
5876;SDS011;2964;42.144;24.730;2023-03-31T07:35:52;20.00;;;13.37;;
5876;SDS011;2964;42.144;24.730;2023-03-31T07:38:18;20.20;;;12.83;;
5876;SDS011;2964;42.144;24.730;2023-03-31T07:40:45;20.77;;;11.63;;
5876;SDS011;2964;42.144;24.730;2023-03-31T07:43:12;22.97;;;12.67;;
5876;SDS011;2964;42.144;24.730;2023-03-31T07:45:40;22.80;;;13.83;;
5876;SDS011;2964;42.144;24.730;2023-03-31T07:48:06;20.17;;;12.70;;
5876;SDS011;2964;42.144;24.730;2023-03-31T07:50:33;27.13;;;12.60;;
5876;SDS011;2964;42.144;24.730;2023-03-31T07:53:00;19.70;;;12.93;;
5876;SDS011;2964;42.144;24.730;2023-03-31T07:55:27;28.17;;;13.67;;
5876;SDS011;2964;42.144;24.730;2023-03-31T07:57:54;22.27;;;12.77;;
5876;SDS011;2964;42.144;24.730;2023-03-31T08:00:21;21.70;;;13.23;;
5876;SDS011;2964;42.144;24.730;2023-03-31T08:02:49;22.20;;;13.30;;
5876;SDS011;2964;42.144;24.730;2023-03-31T08:05:17;16.53;;;13.23;;
5876;SDS011;2964;42.144;24.730;2023-03-31T08:07:45;27.87;;;13.33;;
5876;SDS011;2964;42.144;24.730;2023-03-31T08:10:14;21.40;;;12.97;;
5876;SDS011;2964;42.144;24.730;2023-03-31T08:12:42;37.37;;;13.17;;
5876;SDS011;2964;42.144;24.730;2023-03-31T08:15:09;18.87;;;12.17;;
5876;SDS011;2964;42.144;24.730;2023-03-31T08:17:37;22.00;;;12.77;;
5876;SDS011;2964;42.144;24.730;2023-03-31T08:20:06;29.23;;;12.83;;
5876;SDS011;2964;42.144;24.730;2023-03-31T08:22:34;19.73;;;13.97;;
5876;SDS011;2964;42.144;24.730;2023-03-31T08:25:01;29.80;;;14.20;;
5876;SDS011;2964;42.144;24.730;2023-03-31T08:27:31;20.17;;;14.37;;
5876;SDS011;2964;42.144;24.730;2023-03-31T08:29:58;27.07;;;15.00;;
5876;SDS011;2964;42.144;24.730;2023-03-31T08:32:27;19.73;;;15.00;;
5876;SDS011;2964;42.144;24.730;2023-03-31T08:34:54;19.37;;;11.30;;
5876;SDS011;2964;42.144;24.730;2023-03-31T08:37:22;19.57;;;12.27;;
5876;SDS011;2964;42.144;24.730;2023-03-31T08:39:48;17.97;;;12.67;;
5876;SDS011;2964;42.144;24.730;2023-03-31T08:42:16;26.17;;;12.97;;
5876;SDS011;2964;42.144;24.730;2023-03-31T08:44:49;13.83;;;9.07;;
5876;SDS011;2964;42.144;24.730;2023-03-31T08:47:23;12.80;;;9.70;;
5876;SDS011;2964;42.144;24.730;2023-03-31T08:49:53;12.05;;;8.05;;
5876;SDS011;2964;42.144;24.730;2023-03-31T08:52:25;9.07;;;7.93;;
5876;SDS011;2964;42.144;24.730;2023-03-31T08:54:56;9.30;;;8.50;;
5876;SDS011;2964;42.144;24.730;2023-03-31T08:57:25;9.50;;;8.63;;
5876;SDS011;2964;42.144;24.730;2023-03-31T08:59:57;10.57;;;9.50;;
5876;SDS011;2964;42.144;24.730;2023-03-31T09:02:31;10.52;;;9.52;;
5876;SDS011;2964;42.144;24.730;2023-03-31T09:05:14;8.63;;;7.82;;
5876;SDS011;2964;42.144;24.730;2023-03-31T09:07:52;8.40;;;7.75;;
5876;SDS011;2964;42.144;24.730;2023-03-31T09:10:34;8.07;;;7.43;;
5876;SDS011;2964;42.144;24.730;2023-03-31T09:13:09;9.30;;;8.55;;
5876;SDS011;2964;42.144;24.730;2023-03-31T09:15:49;9.70;;;8.43;;
5876;SDS011;2964;42.144;24.730;2023-03-31T09:18:25;7.20;;;6.55;;
5876;SDS011;2964;42.144;24.730;2023-03-31T09:20:56;7.80;;;7.30;;
5876;SDS011;2964;42.144;24.730;2023-03-31T09:23:30;8.15;;;7.22;;
5876;SDS011;2964;42.144;24.730;2023-03-31T09:26:00;8.10;;;6.97;;
5876;SDS011;2964;42.144;24.730;2023-03-31T09:28:29;7.70;;;7.20;;
5876;SDS011;2964;42.144;24.730;2023-03-31T09:31:07;10.50;;;7.50;;
5876;SDS011;2964;42.144;24.730;2023-03-31T09:33:39;7.03;;;6.43;;
5876;SDS011;2964;42.144;24.730;2023-03-31T09:36:12;9.45;;;6.22;;
5876;SDS011;2964;42.144;24.730;2023-03-31T09:38:42;8.25;;;7.45;;
5876;SDS011;2964;42.144;24.730;2023-03-31T09:41:10;7.83;;;6.83;;
5876;SDS011;2964;42.144;24.730;2023-03-31T09:43:40;7.23;;;6.73;;
5876;SDS011;2964;42.144;24.730;2023-03-31T09:46:11;10.03;;;6.83;;
5876;SDS011;2964;42.144;24.730;2023-03-31T09:48:43;6.73;;;6.23;;
5876;SDS011;2964;42.144;24.730;2023-03-31T09:51:19;6.70;;;6.27;;
5876;SDS011;2964;42.144;24.730;2023-03-31T09:53:53;7.97;;;7.33;;
5876;SDS011;2964;42.144;24.730;2023-03-31T09:56:32;7.93;;;7.30;;
5876;SDS011;2964;42.144;24.730;2023-03-31T09:59:12;7.67;;;7.00;;
5876;SDS011;2964;42.144;24.730;2023-03-31T10:01:41;10.23;;;6.63;;
5876;SDS011;2964;42.144;24.730;2023-03-31T10:04:14;11.73;;;8.47;;
5876;SDS011;2964;42.144;24.730;2023-03-31T10:06:45;8.33;;;6.97;;
5876;SDS011;2964;42.144;24.730;2023-03-31T10:09:14;7.43;;;6.73;;
5876;SDS011;2964;42.144;24.730;2023-03-31T10:11:51;9.37;;;8.77;;
5876;SDS011;2964;42.144;24.730;2023-03-31T10:14:23;7.73;;;7.27;;
5876;SDS011;2964;42.144;24.730;2023-03-31T10:16:52;7.73;;;7.13;;
5876;SDS011;2964;42.144;24.730;2023-03-31T10:19:21;8.70;;;7.97;;
5876;SDS011;2964;42.144;24.730;2023-03-31T10:21:54;12.63;;;8.20;;
5876;SDS011;2964;42.144;24.730;2023-03-31T10:24:23;8.70;;;8.03;;
5876;SDS011;2964;42.144;24.730;2023-03-31T10:26:52;8.20;;;7.03;;
5876;SDS011;2964;42.144;24.730;2023-03-31T10:29:21;8.13;;;7.50;;
5876;SDS011;2964;42.144;24.730;2023-03-31T10:31:54;7.90;;;7.27;;
5876;SDS011;2964;42.144;24.730;2023-03-31T10:34:21;9.77;;;8.10;;
5876;SDS011;2964;42.144;24.730;2023-03-31T10:36:49;8.90;;;8.13;;
5876;SDS011;2964;42.144;24.730;2023-03-31T10:39:17;8.17;;;7.57;;
5876;SDS011;2964;42.144;24.730;2023-03-31T10:41:49;9.80;;;8.90;;
5876;SDS011;2964;42.144;24.730;2023-03-31T10:44:30;9.70;;;7.63;;
5876;SDS011;2964;42.144;24.730;2023-03-31T10:47:03;8.00;;;7.50;;
5876;SDS011;2964;42.144;24.730;2023-03-31T10:49:43;8.23;;;7.07;;
5876;SDS011;2964;42.144;24.730;2023-03-31T10:52:14;7.03;;;6.73;;
5876;SDS011;2964;42.144;24.730;2023-03-31T10:54:47;8.63;;;7.93;;
5876;SDS011;2964;42.144;24.730;2023-03-31T10:57:16;8.83;;;7.67;;
5876;SDS011;2964;42.144;24.730;2023-03-31T10:59:49;55.83;;;10.80;;
5876;SDS011;2964;42.144;24.730;2023-03-31T11:05:30;9.07;;;8.27;;
5876;SDS011;2964;42.144;24.730;2023-03-31T11:08:16;9.43;;;8.53;;
5876;SDS011;2964;42.144;24.730;2023-03-31T11:10:52;8.70;;;8.13;;
5876;SDS011;2964;42.144;24.730;2023-03-31T11:13:31;8.00;;;7.37;;
5876;SDS011;2964;42.144;24.730;2023-03-31T11:16:09;9.33;;;8.13;;
5876;SDS011;2964;42.144;24.730;2023-03-31T11:18:47;8.03;;;7.47;;
5876;SDS011;2964;42.144;24.730;2023-03-31T11:21:30;8.47;;;7.97;;
5876;SDS011;2964;42.144;24.730;2023-03-31T11:24:05;7.87;;;6.87;;
5876;SDS011;2964;42.144;24.730;2023-03-31T11:26:44;9.60;;;7.43;;
5876;SDS011;2964;42.144;24.730;2023-03-31T11:29:20;8.17;;;7.00;;
5876;SDS011;2964;42.144;24.730;2023-03-31T11:31:56;9.87;;;7.40;;
5876;SDS011;2964;42.144;24.730;2023-03-31T11:34:45;11.97;;;7.87;;
5876;SDS011;2964;42.144;24.730;2023-03-31T11:37:26;8.13;;;7.53;;
5876;SDS011;2964;42.144;24.730;2023-03-31T11:40:10;7.37;;;6.77;;
5876;SDS011;2964;42.144;24.730;2023-03-31T11:42:56;8.17;;;7.30;;
5876;SDS011;2964;42.144;24.730;2023-03-31T11:45:30;7.40;;;6.80;;
5876;SDS011;2964;42.144;24.730;2023-03-31T11:48:02;7.07;;;6.53;;
5876;SDS011;2964;42.144;24.730;2023-03-31T11:50:33;7.40;;;6.90;;
5876;SDS011;2964;42.144;24.730;2023-03-31T11:53:04;7.97;;;7.20;;
5876;SDS011;2964;42.144;24.730;2023-03-31T11:55:38;10.07;;;7.43;;
5876;SDS011;2964;42.144;24.730;2023-03-31T11:58:06;9.03;;;6.50;;
5876;SDS011;2964;42.144;24.730;2023-03-31T12:00:42;7.43;;;6.93;;
5876;SDS011;2964;42.144;24.730;2023-03-31T12:03:12;12.60;;;8.03;;
5876;SDS011;2964;42.144;24.730;2023-03-31T12:05:43;8.53;;;7.83;;
5876;SDS011;2964;42.144;24.730;2023-03-31T12:08:14;7.90;;;7.33;;
5876;SDS011;2964;42.144;24.730;2023-03-31T12:10:44;8.73;;;8.07;;
5876;SDS011;2964;42.144;24.730;2023-03-31T12:13:22;9.30;;;6.93;;
5876;SDS011;2964;42.144;24.730;2023-03-31T12:16:00;19.50;;;7.33;;
5876;SDS011;2964;42.144;24.730;2023-03-31T12:18:31;8.27;;;7.57;;
5876;SDS011;2964;42.144;24.730;2023-03-31T12:21:02;7.00;;;6.43;;
5876;SDS011;2964;42.144;24.730;2023-03-31T12:23:33;7.40;;;6.60;;
5876;SDS011;2964;42.144;24.730;2023-03-31T12:26:05;6.93;;;6.43;;
5876;SDS011;2964;42.144;24.730;2023-03-31T12:28:36;10.57;;;7.47;;
5876;SDS011;2964;42.144;24.730;2023-03-31T12:31:06;7.27;;;6.60;;
5876;SDS011;2964;42.144;24.730;2023-03-31T12:33:36;8.40;;;6.27;;
5876;SDS011;2964;42.144;24.730;2023-03-31T12:36:10;6.80;;;5.10;;
5876;SDS011;2964;42.144;24.730;2023-03-31T12:38:49;7.33;;;6.63;;
5876;SDS011;2964;42.144;24.730;2023-03-31T12:41:23;5.63;;;5.13;;
5876;SDS011;2964;42.144;24.730;2023-03-31T12:43:59;9.87;;;5.23;;
5876;SDS011;2964;42.144;24.730;2023-03-31T12:46:44;6.37;;;5.10;;
5876;SDS011;2964;42.144;24.730;2023-03-31T12:49:27;7.03;;;5.23;;
5876;SDS011;2964;42.144;24.730;2023-03-31T12:52:06;6.43;;;5.93;;
5876;SDS011;2964;42.144;24.730;2023-03-31T12:54:56;5.73;;;5.40;;
5876;SDS011;2964;42.144;24.730;2023-03-31T12:57:36;6.93;;;6.27;;
5876;SDS011;2964;42.144;24.730;2023-03-31T13:00:20;6.10;;;5.60;;
5876;SDS011;2964;42.144;24.730;2023-03-31T13:02:51;5.43;;;5.00;;
5876;SDS011;2964;42.144;24.730;2023-03-31T13:05:58;7.00;;;6.43;;
5876;SDS011;2964;42.144;24.730;2023-03-31T13:11:17;5.07;;;4.63;;
5876;SDS011;2964;42.144;24.730;2023-03-31T13:13:46;5.37;;;4.97;;
5876;SDS011;2964;42.144;24.730;2023-03-31T13:16:24;6.13;;;4.93;;
5876;SDS011;2964;42.144;24.730;2023-03-31T13:18:52;7.13;;;5.80;;
5876;SDS011;2964;42.144;24.730;2023-03-31T13:21:20;5.53;;;5.00;;
5876;SDS011;2964;42.144;24.730;2023-03-31T13:23:47;6.43;;;5.30;;
5876;SDS011;2964;42.144;24.730;2023-03-31T13:29:19;7.67;;;5.40;;
5876;SDS011;2964;42.144;24.730;2023-03-31T13:34:53;5.03;;;4.63;;
5876;SDS011;2964;42.144;24.730;2023-03-31T13:40:29;5.53;;;5.00;;
5876;SDS011;2964;42.144;24.730;2023-03-31T13:43:28;6.27;;;5.77;;
5876;SDS011;2964;42.144;24.730;2023-03-31T13:49:37;7.27;;;5.93;;
5876;SDS011;2964;42.144;24.730;2023-03-31T13:52:20;7.00;;;6.47;;
5876;SDS011;2964;42.144;24.730;2023-03-31T13:57:55;6.83;;;5.97;;
5876;SDS011;2964;42.144;24.730;2023-03-31T14:00:58;6.43;;;5.87;;
5876;SDS011;2964;42.144;24.730;2023-03-31T14:03:53;6.27;;;5.70;;
5876;SDS011;2964;42.144;24.730;2023-03-31T14:06:29;8.47;;;4.50;;
5876;SDS011;2964;42.144;24.730;2023-03-31T14:09:19;6.50;;;5.80;;
5876;SDS011;2964;42.144;24.730;2023-03-31T14:11:50;8.73;;;6.50;;
5876;SDS011;2964;42.144;24.730;2023-03-31T14:14:17;5.50;;;5.03;;
5876;SDS011;2964;42.144;24.730;2023-03-31T14:16:44;15.63;;;6.00;;
5876;SDS011;2964;42.144;24.730;2023-03-31T14:19:24;6.87;;;6.30;;
5876;SDS011;2964;42.144;24.730;2023-03-31T14:22:06;6.13;;;5.53;;
5876;SDS011;2964;42.144;24.730;2023-03-31T14:24:45;7.17;;;6.47;;
5876;SDS011;2964;42.144;24.730;2023-03-31T14:27:19;6.83;;;6.33;;
5876;SDS011;2964;42.144;24.730;2023-03-31T14:29:57;14.00;;;5.77;;
5876;SDS011;2964;42.144;24.730;2023-03-31T14:32:33;6.57;;;5.67;;
5876;SDS011;2964;42.144;24.730;2023-03-31T14:35:12;5.40;;;5.00;;
5876;SDS011;2964;42.144;24.730;2023-03-31T14:37:52;10.13;;;6.50;;
5876;SDS011;2964;42.144;24.730;2023-03-31T14:40:28;5.73;;;5.23;;
5876;SDS011;2964;42.144;24.730;2023-03-31T14:42:56;6.53;;;6.07;;
5876;SDS011;2964;42.144;24.730;2023-03-31T14:45:24;9.10;;;6.10;;
5876;SDS011;2964;42.144;24.730;2023-03-31T14:47:56;9.70;;;5.40;;
5876;SDS011;2964;42.144;24.730;2023-03-31T14:50:27;6.43;;;5.80;;
5876;SDS011;2964;42.144;24.730;2023-03-31T14:52:56;7.13;;;4.77;;
5876;SDS011;2964;42.144;24.730;2023-03-31T14:55:28;6.43;;;5.90;;
5876;SDS011;2964;42.144;24.730;2023-03-31T14:57:58;8.53;;;4.77;;
5876;SDS011;2964;42.144;24.730;2023-03-31T15:00:28;8.50;;;5.40;;
5876;SDS011;2964;42.144;24.730;2023-03-31T15:02:57;6.40;;;4.80;;
5876;SDS011;2964;42.144;24.730;2023-03-31T15:05:28;7.70;;;5.93;;
5876;SDS011;2964;42.144;24.730;2023-03-31T15:07:56;8.10;;;5.30;;
5876;SDS011;2964;42.144;24.730;2023-03-31T15:10:23;5.73;;;5.10;;
5876;SDS011;2964;42.144;24.730;2023-03-31T15:12:56;5.43;;;5.03;;
5876;SDS011;2964;42.144;24.730;2023-03-31T15:15:25;6.83;;;5.37;;
5876;SDS011;2964;42.144;24.730;2023-03-31T15:17:52;6.20;;;5.73;;
5876;SDS011;2964;42.144;24.730;2023-03-31T15:20:23;5.77;;;4.83;;
5876;SDS011;2964;42.144;24.730;2023-03-31T15:22:52;6.20;;;5.73;;
5876;SDS011;2964;42.144;24.730;2023-03-31T15:25:20;5.67;;;5.47;;
5876;SDS011;2964;42.144;24.730;2023-03-31T15:27:51;5.53;;;5.13;;
5876;SDS011;2964;42.144;24.730;2023-03-31T15:30:22;6.00;;;5.57;;
5876;SDS011;2964;42.144;24.730;2023-03-31T15:32:52;5.43;;;4.93;;
5876;SDS011;2964;42.144;24.730;2023-03-31T15:35:20;5.97;;;4.40;;
5876;SDS011;2964;42.144;24.730;2023-03-31T15:37:49;5.37;;;4.97;;
5876;SDS011;2964;42.144;24.730;2023-03-31T15:40:20;7.50;;;5.50;;
5876;SDS011;2964;42.144;24.730;2023-03-31T15:42:48;6.40;;;5.43;;
5876;SDS011;2964;42.144;24.730;2023-03-31T15:48:16;5.43;;;5.03;;
5876;SDS011;2964;42.144;24.730;2023-03-31T15:50:45;5.97;;;5.57;;
5876;SDS011;2964;42.144;24.730;2023-03-31T15:53:27;8.07;;;6.23;;